createdAt,value
2024-02-14T00:04:10.317Z,5
2024-02-14T00:09:49.302Z,5
2024-02-14T00:14:57.186Z,5
2024-02-14T00:20:21.450Z,5
2024-02-14T00:25:44.923Z,5
2024-02-14T00:31:25.061Z,5
2024-02-14T00:36:50.951Z,5
2024-02-14T00:42:14.029Z,5
2024-02-14T00:47:38.189Z,5
2024-02-14T00:53:18.970Z,5
2024-02-14T00:58:57.481Z,5
2024-02-14T01:04:37.368Z,5
2024-02-14T01:10:17.286Z,5
2024-02-14T01:15:56.606Z,4.9
2024-02-14T01:21:21.114Z,4.9
2024-02-14T08:08:50.888Z,11.6
2024-02-14T08:14:31.824Z,11.6
2024-02-14T08:20:01.046Z,11.6
2024-02-14T08:25:28.688Z,11.6
2024-02-14T08:31:08.318Z,11.6
2024-02-14T08:36:55.622Z,11.4
2024-02-14T08:42:34.531Z,11.2
2024-02-14T08:48:15.396Z,11.1
2024-02-14T08:54:03.302Z,10.9
2024-02-14T08:59:43.379Z,10.8
2024-02-14T09:05:38.534Z,10.7
2024-02-14T09:11:18.083Z,10.6
2024-02-14T09:16:57.905Z,10.6
2024-02-14T09:22:39.182Z,10.8
2024-02-14T09:28:18.223Z,11.1
2024-02-14T09:33:56.210Z,11.4
2024-02-14T09:39:37.941Z,11.8
2024-02-14T09:45:18.950Z,12.2
2024-02-14T09:51:01.918Z,12.4
2024-02-14T09:56:41.448Z,12.6
2024-02-14T10:02:21.849Z,12.6
2024-02-14T10:08:02.179Z,12.6
2024-02-14T10:13:38.923Z,12.7
2024-02-14T10:19:21.016Z,12.6
2024-02-14T10:25:01.247Z,12.7
2024-02-14T10:30:46.111Z,12.9
2024-02-14T10:36:39.965Z,13.3
2024-02-14T10:42:21.925Z,13.7
2024-02-14T10:48:01.800Z,13.8
2024-02-14T10:53:41.728Z,13.8
2024-02-14T10:59:20.497Z,13.6
2024-02-14T11:04:46.576Z,13.3
2024-02-14T11:10:27.612Z,12.9
2024-02-14T11:16:06.062Z,12.6
2024-02-14T11:21:48.451Z,12.4
2024-02-14T11:27:39.652Z,12.1
2024-02-14T11:33:22.094Z,11.7
2024-02-14T11:39:02.857Z,11.4
2024-02-14T11:44:44.811Z,11.2
2024-02-14T11:50:27.206Z,10.9
2024-02-14T11:56:06.601Z,10.6
2024-02-14T12:01:47.269Z,10.4
2024-02-14T12:07:27.384Z,10.2
2024-02-14T12:13:07.276Z,10
2024-02-14T12:18:47.649Z,9.8
2024-02-14T12:24:26.700Z,9.7
2024-02-14T12:30:06.871Z,9.6
2024-02-14T12:35:54.915Z,9.6
2024-02-14T12:41:33.198Z,9.7
2024-02-14T12:47:12.161Z,9.9
2024-02-14T12:52:52.247Z,10.1
2024-02-14T12:58:30.527Z,10.2
2024-02-14T13:04:10.641Z,10.2
2024-02-14T13:09:51.365Z,10.1
2024-02-14T13:15:29.990Z,10
2024-02-14T13:21:11.844Z,9.9
2024-02-14T13:26:50.233Z,9.8
2024-02-14T13:32:12.959Z,9.7
2024-02-14T13:37:54.142Z,9.6
2024-02-14T13:43:35.460Z,9.5
2024-02-14T13:49:16.192Z,9.4
2024-02-14T13:54:56.577Z,9.4
2024-02-14T14:00:36.031Z,9.3
2024-02-14T14:06:14.217Z,9.3
2024-02-14T14:12:10.372Z,9.2
2024-02-14T14:17:52.587Z,9.1
2024-02-14T14:23:32.862Z,9.1
2024-02-14T14:29:17.900Z,9.1
2024-02-14T14:35:02.201Z,8.9
2024-02-14T14:40:44.153Z,8.8
2024-02-14T14:46:07.906Z,8.7
2024-02-14T14:51:50.660Z,8.6
2024-02-14T14:57:33.635Z,8.4
2024-02-14T15:03:16.022Z,8.3
2024-02-14T15:08:40.505Z,8.1
2024-02-14T15:14:21.154Z,8
2024-02-14T15:20:03.486Z,7.8
2024-02-14T15:25:45.941Z,7.7
2024-02-14T15:31:25.094Z,7.6
2024-02-14T15:37:06.053Z,7.4
2024-02-14T15:42:44.664Z,7.3
2024-02-14T15:48:07.800Z,7.1
2024-02-14T15:53:32.976Z,6.9
2024-02-14T15:59:11.751Z,6.8
2024-02-14T16:04:51.177Z,6.7
2024-02-14T16:10:30.743Z,6.6
2024-02-14T16:16:10.186Z,6.4
2024-02-14T16:21:58.789Z,6.3
2024-02-14T16:27:45.327Z,6.1
2024-02-14T16:33:23.938Z,6
2024-02-14T16:39:04.228Z,5.9
2024-02-14T16:44:58.100Z,5.8
2024-02-14T16:50:40.894Z,5.7
2024-02-14T16:56:23.257Z,5.6
2024-02-14T17:01:50.645Z,5.5
2024-02-14T17:07:45.117Z,5.4
2024-02-14T17:13:25.891Z,5.3
2024-02-14T17:18:52.182Z,5.3
2024-02-14T17:24:41.373Z,5.2
2024-02-14T17:30:19.883Z,5.1
2024-02-14T17:36:13.530Z,5
2024-02-14T17:41:52.111Z,4.9
2024-02-14T17:47:15.143Z,4.9
2024-02-14T17:52:55.740Z,4.9
2024-02-14T17:58:34.108Z,4.8
2024-02-14T18:04:13.167Z,4.8
2024-02-14T18:09:40.013Z,4.8
2024-02-14T18:15:20.731Z,4.7
2024-02-14T18:20:44.773Z,4.7
2024-02-14T18:26:25.303Z,4.6
2024-02-14T18:32:04.627Z,4.6
2024-02-14T18:37:30.764Z,4.6
2024-02-14T18:43:09.985Z,4.5
2024-02-14T18:48:48.847Z,4.4
2024-02-14T18:54:28.156Z,4.4
2024-02-14T19:00:06.901Z,4.4
2024-02-14T19:05:47.844Z,4.4
2024-02-14T19:11:26.809Z,4.3
2024-02-14T19:17:18.296Z,4.3
2024-02-14T19:22:59.034Z,4.3
2024-02-14T19:28:37.657Z,4.2
